sensor_id;sensor_type;location;lat;lon;timestamp;P1;durP1;ratioP1;P2;durP2;ratioP2
67997;SDS011;54773;53.388;-1.504;2023-03-14T00:01:19;3.00;;;1.40;;
67997;SDS011;54773;53.388;-1.504;2023-03-14T00:03:45;2.67;;;1.25;;
67997;SDS011;54773;53.388;-1.504;2023-03-14T00:06:14;3.22;;;1.30;;
67997;SDS011;54773;53.388;-1.504;2023-03-14T00:08:41;2.83;;;1.15;;
67997;SDS011;54773;53.388;-1.504;2023-03-14T00:11:15;2.97;;;1.20;;
67997;SDS011;54773;53.388;-1.504;2023-03-14T00:13:42;2.33;;;1.10;;
67997;SDS011;54773;53.388;-1.504;2023-03-14T00:16:09;3.15;;;1.67;;
67997;SDS011;54773;53.388;-1.504;2023-03-14T00:18:36;3.03;;;1.23;;
67997;SDS011;54773;53.388;-1.504;2023-03-14T00:21:02;3.58;;;1.27;;
67997;SDS011;54773;53.388;-1.504;2023-03-14T00:23:29;2.97;;;1.35;;
67997;SDS011;54773;53.388;-1.504;2023-03-14T00:25:59;3.45;;;1.17;;
67997;SDS011;54773;53.388;-1.504;2023-03-14T00:28:25;3.33;;;1.42;;
67997;SDS011;54773;53.388;-1.504;2023-03-14T00:30:50;2.92;;;1.48;;
67997;SDS011;54773;53.388;-1.504;2023-03-14T00:33:21;2.50;;;1.17;;
67997;SDS011;54773;53.388;-1.504;2023-03-14T00:35:57;3.67;;;1.60;;
67997;SDS011;54773;53.388;-1.504;2023-03-14T00:38:29;3.13;;;1.27;;
67997;SDS011;54773;53.388;-1.504;2023-03-14T00:40:55;2.78;;;1.23;;
67997;SDS011;54773;53.388;-1.504;2023-03-14T00:43:21;3.83;;;1.48;;
67997;SDS011;54773;53.388;-1.504;2023-03-14T00:45:47;3.20;;;1.60;;
67997;SDS011;54773;53.388;-1.504;2023-03-14T00:48:16;3.92;;;1.67;;
67997;SDS011;54773;53.388;-1.504;2023-03-14T00:50:45;3.40;;;1.35;;
67997;SDS011;54773;53.388;-1.504;2023-03-14T00:53:14;3.03;;;1.27;;
67997;SDS011;54773;53.388;-1.504;2023-03-14T00:55:43;3.30;;;1.38;;
67997;SDS011;54773;53.388;-1.504;2023-03-14T00:58:10;2.17;;;1.10;;
67997;SDS011;54773;53.388;-1.504;2023-03-14T01:00:36;3.10;;;1.25;;
67997;SDS011;54773;53.388;-1.504;2023-03-14T01:03:02;3.50;;;1.70;;
67997;SDS011;54773;53.388;-1.504;2023-03-14T01:05:28;3.53;;;1.13;;
67997;SDS011;54773;53.388;-1.504;2023-03-14T01:07:53;3.00;;;1.30;;
67997;SDS011;54773;53.388;-1.504;2023-03-14T01:10:19;4.07;;;1.50;;
67997;SDS011;54773;53.388;-1.504;2023-03-14T01:12:44;3.60;;;1.60;;
67997;SDS011;54773;53.388;-1.504;2023-03-14T01:15:10;3.97;;;1.80;;
67997;SDS011;54773;53.388;-1.504;2023-03-14T01:17:38;2.97;;;1.38;;
67997;SDS011;54773;53.388;-1.504;2023-03-14T01:20:07;4.18;;;1.77;;
67997;SDS011;54773;53.388;-1.504;2023-03-14T01:22:36;2.22;;;1.15;;
67997;SDS011;54773;53.388;-1.504;2023-03-14T01:25:05;3.80;;;1.10;;
67997;SDS011;54773;53.388;-1.504;2023-03-14T01:27:34;3.55;;;1.40;;
67997;SDS011;54773;53.388;-1.504;2023-03-14T01:30:00;3.53;;;1.20;;
67997;SDS011;54773;53.388;-1.504;2023-03-14T01:32:25;4.55;;;1.38;;
67997;SDS011;54773;53.388;-1.504;2023-03-14T01:35:09;3.08;;;1.10;;
67997;SDS011;54773;53.388;-1.504;2023-03-14T01:37:54;3.13;;;0.88;;
67997;SDS011;54773;53.388;-1.504;2023-03-14T01:40:42;4.95;;;1.40;;
67997;SDS011;54773;53.388;-1.504;2023-03-14T01:43:27;3.83;;;1.30;;
67997;SDS011;54773;53.388;-1.504;2023-03-14T01:49:31;5.75;;;1.00;;
67997;SDS011;54773;53.388;-1.504;2023-03-14T01:55:23;3.33;;;1.23;;
67997;SDS011;54773;53.388;-1.504;2023-03-14T01:58:08;4.43;;;1.33;;
67997;SDS011;54773;53.388;-1.504;2023-03-14T02:00:53;4.13;;;1.75;;
67997;SDS011;54773;53.388;-1.504;2023-03-14T02:03:41;3.83;;;1.58;;
67997;SDS011;54773;53.388;-1.504;2023-03-14T02:06:40;4.50;;;1.45;;
67997;SDS011;54773;53.388;-1.504;2023-03-14T02:09:29;4.43;;;1.50;;
67997;SDS011;54773;53.388;-1.504;2023-03-14T02:12:15;4.88;;;1.83;;
67997;SDS011;54773;53.388;-1.504;2023-03-14T02:15:00;5.82;;;1.85;;
67997;SDS011;54773;53.388;-1.504;2023-03-14T02:17:47;7.07;;;1.75;;
67997;SDS011;54773;53.388;-1.504;2023-03-14T02:26:31;5.75;;;1.20;;
67997;SDS011;54773;53.388;-1.504;2023-03-14T02:29:20;5.03;;;1.40;;
67997;SDS011;54773;53.388;-1.504;2023-03-14T02:32:06;3.90;;;0.90;;
67997;SDS011;54773;53.388;-1.504;2023-03-14T02:34:52;2.65;;;1.17;;
67997;SDS011;54773;53.388;-1.504;2023-03-14T02:37:41;5.35;;;1.30;;
67997;SDS011;54773;53.388;-1.504;2023-03-14T02:40:30;6.65;;;1.77;;
67997;SDS011;54773;53.388;-1.504;2023-03-14T02:43:14;3.97;;;1.20;;
67997;SDS011;54773;53.388;-1.504;2023-03-14T02:45:58;4.28;;;1.27;;
67997;SDS011;54773;53.388;-1.504;2023-03-14T02:48:44;5.90;;;1.45;;
67997;SDS011;54773;53.388;-1.504;2023-03-14T02:51:31;5.30;;;1.20;;
67997;SDS011;54773;53.388;-1.504;2023-03-14T02:54:18;3.90;;;1.25;;
67997;SDS011;54773;53.388;-1.504;2023-03-14T02:57:06;4.95;;;1.40;;
67997;SDS011;54773;53.388;-1.504;2023-03-14T02:59:50;2.63;;;1.25;;
67997;SDS011;54773;53.388;-1.504;2023-03-14T03:02:35;4.05;;;1.35;;
67997;SDS011;54773;53.388;-1.504;2023-03-14T03:05:19;7.78;;;1.52;;
67997;SDS011;54773;53.388;-1.504;2023-03-14T03:08:03;4.78;;;1.30;;
67997;SDS011;54773;53.388;-1.504;2023-03-14T03:10:48;5.10;;;1.48;;
67997;SDS011;54773;53.388;-1.504;2023-03-14T03:13:33;6.60;;;1.38;;
67997;SDS011;54773;53.388;-1.504;2023-03-14T03:16:17;6.72;;;1.80;;
67997;SDS011;54773;53.388;-1.504;2023-03-14T03:19:01;4.28;;;1.38;;
67997;SDS011;54773;53.388;-1.504;2023-03-14T03:21:46;6.00;;;1.60;;
67997;SDS011;54773;53.388;-1.504;2023-03-14T03:24:29;9.85;;;2.03;;
67997;SDS011;54773;53.388;-1.504;2023-03-14T03:27:14;5.47;;;1.50;;
67997;SDS011;54773;53.388;-1.504;2023-03-14T03:29:58;6.45;;;1.90;;
67997;SDS011;54773;53.388;-1.504;2023-03-14T03:32:42;5.35;;;1.70;;
67997;SDS011;54773;53.388;-1.504;2023-03-14T03:35:26;4.82;;;1.52;;
67997;SDS011;54773;53.388;-1.504;2023-03-14T03:38:13;6.28;;;1.70;;
67997;SDS011;54773;53.388;-1.504;2023-03-14T03:41:01;5.85;;;1.58;;
67997;SDS011;54773;53.388;-1.504;2023-03-14T03:43:46;5.70;;;1.40;;
67997;SDS011;54773;53.388;-1.504;2023-03-14T03:46:30;9.45;;;1.58;;
67997;SDS011;54773;53.388;-1.504;2023-03-14T03:49:17;10.05;;;2.28;;
67997;SDS011;54773;53.388;-1.504;2023-03-14T03:52:01;7.00;;;1.58;;
67997;SDS011;54773;53.388;-1.504;2023-03-14T03:54:45;5.68;;;1.35;;
67997;SDS011;54773;53.388;-1.504;2023-03-14T03:57:28;5.73;;;1.27;;
67997;SDS011;54773;53.388;-1.504;2023-03-14T04:00:12;9.20;;;1.88;;
67997;SDS011;54773;53.388;-1.504;2023-03-14T04:02:57;9.65;;;1.75;;
67997;SDS011;54773;53.388;-1.504;2023-03-14T04:05:41;10.90;;;2.13;;
67997;SDS011;54773;53.388;-1.504;2023-03-14T04:08:25;7.97;;;1.70;;
67997;SDS011;54773;53.388;-1.504;2023-03-14T04:11:09;7.90;;;1.60;;
67997;SDS011;54773;53.388;-1.504;2023-03-14T04:13:53;6.70;;;1.40;;
67997;SDS011;54773;53.388;-1.504;2023-03-14T04:16:38;11.10;;;2.22;;
67997;SDS011;54773;53.388;-1.504;2023-03-14T04:19:22;8.38;;;1.83;;
67997;SDS011;54773;53.388;-1.504;2023-03-14T04:22:05;11.18;;;1.90;;
67997;SDS011;54773;53.388;-1.504;2023-03-14T04:24:50;7.60;;;1.98;;
67997;SDS011;54773;53.388;-1.504;2023-03-14T04:27:34;11.63;;;2.25;;
67997;SDS011;54773;53.388;-1.504;2023-03-14T04:30:18;13.57;;;2.47;;
67997;SDS011;54773;53.388;-1.504;2023-03-14T04:33:02;11.25;;;2.25;;
67997;SDS011;54773;53.388;-1.504;2023-03-14T04:35:46;11.40;;;2.15;;
67997;SDS011;54773;53.388;-1.504;2023-03-14T04:38:31;8.57;;;2.22;;
67997;SDS011;54773;53.388;-1.504;2023-03-14T04:41:15;7.82;;;1.48;;
67997;SDS011;54773;53.388;-1.504;2023-03-14T04:43:59;12.48;;;2.13;;
67997;SDS011;54773;53.388;-1.504;2023-03-14T04:46:43;11.77;;;2.78;;
67997;SDS011;54773;53.388;-1.504;2023-03-14T04:49:27;14.20;;;1.80;;
67997;SDS011;54773;53.388;-1.504;2023-03-14T04:52:12;9.68;;;1.80;;
67997;SDS011;54773;53.388;-1.504;2023-03-14T04:54:56;8.75;;;1.50;;
67997;SDS011;54773;53.388;-1.504;2023-03-14T04:58:03;8.93;;;2.00;;
67997;SDS011;54773;53.388;-1.504;2023-03-14T05:00:47;8.65;;;1.73;;
67997;SDS011;54773;53.388;-1.504;2023-03-14T05:03:31;8.75;;;1.90;;
67997;SDS011;54773;53.388;-1.504;2023-03-14T05:06:16;10.32;;;2.35;;
67997;SDS011;54773;53.388;-1.504;2023-03-14T05:09:00;9.98;;;1.95;;
67997;SDS011;54773;53.388;-1.504;2023-03-14T05:11:45;9.25;;;2.72;;
67997;SDS011;54773;53.388;-1.504;2023-03-14T05:14:29;9.73;;;2.20;;
67997;SDS011;54773;53.388;-1.504;2023-03-14T05:17:13;12.27;;;2.00;;
67997;SDS011;54773;53.388;-1.504;2023-03-14T05:19:58;10.05;;;2.28;;
67997;SDS011;54773;53.388;-1.504;2023-03-14T05:22:42;10.65;;;2.03;;
67997;SDS011;54773;53.388;-1.504;2023-03-14T05:25:26;8.53;;;2.17;;
67997;SDS011;54773;53.388;-1.504;2023-03-14T05:28:10;8.15;;;2.33;;
67997;SDS011;54773;53.388;-1.504;2023-03-14T05:30:54;9.80;;;2.67;;
67997;SDS011;54773;53.388;-1.504;2023-03-14T05:33:38;14.02;;;2.60;;
67997;SDS011;54773;53.388;-1.504;2023-03-14T05:36:21;10.37;;;2.27;;
67997;SDS011;54773;53.388;-1.504;2023-03-14T05:39:08;10.38;;;2.40;;
67997;SDS011;54773;53.388;-1.504;2023-03-14T05:41:52;15.43;;;2.92;;
67997;SDS011;54773;53.388;-1.504;2023-03-14T05:44:39;10.20;;;2.60;;
67997;SDS011;54773;53.388;-1.504;2023-03-14T05:47:23;11.02;;;2.22;;
67997;SDS011;54773;53.388;-1.504;2023-03-14T05:50:08;10.32;;;2.20;;
67997;SDS011;54773;53.388;-1.504;2023-03-14T05:52:52;17.10;;;2.03;;
67997;SDS011;54773;53.388;-1.504;2023-03-14T05:55:36;12.40;;;2.63;;
67997;SDS011;54773;53.388;-1.504;2023-03-14T05:58:20;8.87;;;1.93;;
67997;SDS011;54773;53.388;-1.504;2023-03-14T06:01:04;13.93;;;2.97;;
67997;SDS011;54773;53.388;-1.504;2023-03-14T06:03:49;11.10;;;1.75;;
67997;SDS011;54773;53.388;-1.504;2023-03-14T06:06:33;12.23;;;2.60;;
67997;SDS011;54773;53.388;-1.504;2023-03-14T06:09:17;10.18;;;1.88;;
67997;SDS011;54773;53.388;-1.504;2023-03-14T06:12:06;12.23;;;1.85;;
67997;SDS011;54773;53.388;-1.504;2023-03-14T06:14:50;8.88;;;1.80;;
67997;SDS011;54773;53.388;-1.504;2023-03-14T06:17:34;7.45;;;2.20;;
67997;SDS011;54773;53.388;-1.504;2023-03-14T06:20:18;10.13;;;2.20;;
67997;SDS011;54773;53.388;-1.504;2023-03-14T06:23:02;9.75;;;2.10;;
67997;SDS011;54773;53.388;-1.504;2023-03-14T06:25:46;11.90;;;1.73;;
67997;SDS011;54773;53.388;-1.504;2023-03-14T06:28:30;12.93;;;2.13;;
67997;SDS011;54773;53.388;-1.504;2023-03-14T06:31:14;8.20;;;1.60;;
67997;SDS011;54773;53.388;-1.504;2023-03-14T06:33:58;13.38;;;2.00;;
67997;SDS011;54773;53.388;-1.504;2023-03-14T06:36:43;11.85;;;2.13;;
67997;SDS011;54773;53.388;-1.504;2023-03-14T06:39:30;11.18;;;1.90;;
67997;SDS011;54773;53.388;-1.504;2023-03-14T06:42:15;14.60;;;2.08;;
67997;SDS011;54773;53.388;-1.504;2023-03-14T06:44:59;11.70;;;1.98;;
67997;SDS011;54773;53.388;-1.504;2023-03-14T06:47:43;15.25;;;1.98;;
67997;SDS011;54773;53.388;-1.504;2023-03-14T06:50:27;8.07;;;1.75;;
67997;SDS011;54773;53.388;-1.504;2023-03-14T06:53:11;8.52;;;1.73;;
67997;SDS011;54773;53.388;-1.504;2023-03-14T06:55:55;8.38;;;1.55;;
67997;SDS011;54773;53.388;-1.504;2023-03-14T06:58:39;9.55;;;1.90;;
67997;SDS011;54773;53.388;-1.504;2023-03-14T07:01:27;12.00;;;1.77;;
67997;SDS011;54773;53.388;-1.504;2023-03-14T07:04:11;8.25;;;1.35;;
67997;SDS011;54773;53.388;-1.504;2023-03-14T07:06:56;11.35;;;1.75;;
67997;SDS011;54773;53.388;-1.504;2023-03-14T07:09:40;8.90;;;2.10;;
67997;SDS011;54773;53.388;-1.504;2023-03-14T07:12:23;11.80;;;2.05;;
67997;SDS011;54773;53.388;-1.504;2023-03-14T07:15:08;13.05;;;2.28;;
67997;SDS011;54773;53.388;-1.504;2023-03-14T07:17:52;7.57;;;1.85;;
67997;SDS011;54773;53.388;-1.504;2023-03-14T07:20:36;9.75;;;1.95;;
67997;SDS011;54773;53.388;-1.504;2023-03-14T07:23:20;13.18;;;1.85;;
67997;SDS011;54773;53.388;-1.504;2023-03-14T07:26:07;21.17;;;2.40;;
67997;SDS011;54773;53.388;-1.504;2023-03-14T07:28:51;7.70;;;1.52;;
67997;SDS011;54773;53.388;-1.504;2023-03-14T07:31:35;11.10;;;1.75;;
67997;SDS011;54773;53.388;-1.504;2023-03-14T07:34:27;6.10;;;1.60;;
67997;SDS011;54773;53.388;-1.504;2023-03-14T07:37:14;11.73;;;2.00;;
67997;SDS011;54773;53.388;-1.504;2023-03-14T07:39:58;8.35;;;1.65;;
67997;SDS011;54773;53.388;-1.504;2023-03-14T07:42:42;11.48;;;2.03;;
67997;SDS011;54773;53.388;-1.504;2023-03-14T07:45:27;13.27;;;2.20;;
67997;SDS011;54773;53.388;-1.504;2023-03-14T07:48:11;12.60;;;2.70;;
67997;SDS011;54773;53.388;-1.504;2023-03-14T07:50:56;7.70;;;1.55;;
67997;SDS011;54773;53.388;-1.504;2023-03-14T07:53:40;9.85;;;1.73;;
67997;SDS011;54773;53.388;-1.504;2023-03-14T07:56:24;10.00;;;1.73;;
67997;SDS011;54773;53.388;-1.504;2023-03-14T07:59:08;17.73;;;1.77;;
67997;SDS011;54773;53.388;-1.504;2023-03-14T08:01:52;8.95;;;1.40;;
67997;SDS011;54773;53.388;-1.504;2023-03-14T08:04:36;5.70;;;1.67;;
67997;SDS011;54773;53.388;-1.504;2023-03-14T08:07:20;9.57;;;1.65;;
67997;SDS011;54773;53.388;-1.504;2023-03-14T08:10:04;6.93;;;1.30;;
67997;SDS011;54773;53.388;-1.504;2023-03-14T08:12:49;7.10;;;1.30;;
67997;SDS011;54773;53.388;-1.504;2023-03-14T08:15:35;6.90;;;1.50;;
67997;SDS011;54773;53.388;-1.504;2023-03-14T08:18:20;14.35;;;1.65;;
67997;SDS011;54773;53.388;-1.504;2023-03-14T08:21:04;6.45;;;1.30;;
67997;SDS011;54773;53.388;-1.504;2023-03-14T08:23:48;10.73;;;1.70;;
67997;SDS011;54773;53.388;-1.504;2023-03-14T08:26:33;11.98;;;2.20;;
67997;SDS011;54773;53.388;-1.504;2023-03-14T08:29:20;8.85;;;1.75;;
67997;SDS011;54773;53.388;-1.504;2023-03-14T08:32:04;5.28;;;1.20;;
67997;SDS011;54773;53.388;-1.504;2023-03-14T08:34:47;3.53;;;1.20;;
67997;SDS011;54773;53.388;-1.504;2023-03-14T08:37:34;4.17;;;1.43;;
67997;SDS011;54773;53.388;-1.504;2023-03-14T08:40:19;4.22;;;1.08;;
67997;SDS011;54773;53.388;-1.504;2023-03-14T08:43:03;7.63;;;1.38;;
67997;SDS011;54773;53.388;-1.504;2023-03-14T08:45:47;6.72;;;1.40;;
67997;SDS011;54773;53.388;-1.504;2023-03-14T08:48:31;9.90;;;1.33;;
67997;SDS011;54773;53.388;-1.504;2023-03-14T08:51:15;8.15;;;1.30;;
67997;SDS011;54773;53.388;-1.504;2023-03-14T08:56:44;5.40;;;1.10;;
67997;SDS011;54773;53.388;-1.504;2023-03-14T08:59:28;9.38;;;1.60;;
67997;SDS011;54773;53.388;-1.504;2023-03-14T09:02:12;7.88;;;1.60;;
67997;SDS011;54773;53.388;-1.504;2023-03-14T09:04:56;6.97;;;1.10;;
67997;SDS011;54773;53.388;-1.504;2023-03-14T09:07:40;5.22;;;1.50;;
67997;SDS011;54773;53.388;-1.504;2023-03-14T09:10:24;4.82;;;1.15;;
67997;SDS011;54773;53.388;-1.504;2023-03-14T09:13:08;9.40;;;1.48;;
67997;SDS011;54773;53.388;-1.504;2023-03-14T09:15:54;11.70;;;1.77;;
67997;SDS011;54773;53.388;-1.504;2023-03-14T09:18:38;9.00;;;2.30;;
67997;SDS011;54773;53.388;-1.504;2023-03-14T09:21:22;7.88;;;1.90;;
67997;SDS011;54773;53.388;-1.504;2023-03-14T09:24:06;8.95;;;1.58;;
67997;SDS011;54773;53.388;-1.504;2023-03-14T09:26:50;8.17;;;1.77;;
67997;SDS011;54773;53.388;-1.504;2023-03-14T09:29:34;13.40;;;2.53;;
67997;SDS011;54773;53.388;-1.504;2023-03-14T09:32:18;8.50;;;1.60;;
67997;SDS011;54773;53.388;-1.504;2023-03-14T09:35:05;12.52;;;2.20;;
67997;SDS011;54773;53.388;-1.504;2023-03-14T09:37:50;9.65;;;2.33;;
67997;SDS011;54773;53.388;-1.504;2023-03-14T09:40:34;12.00;;;2.20;;
67997;SDS011;54773;53.388;-1.504;2023-03-14T09:43:20;8.20;;;1.80;;
67997;SDS011;54773;53.388;-1.504;2023-03-14T09:46:05;9.75;;;2.50;;
67997;SDS011;54773;53.388;-1.504;2023-03-14T09:48:49;7.57;;;1.83;;
67997;SDS011;54773;53.388;-1.504;2023-03-14T09:51:33;6.03;;;1.58;;
67997;SDS011;54773;53.388;-1.504;2023-03-14T09:57:32;11.18;;;1.85;;
67997;SDS011;54773;53.388;-1.504;2023-03-14T10:00:21;9.10;;;1.90;;
67997;SDS011;54773;53.388;-1.504;2023-03-14T10:06:16;6.72;;;2.08;;
67997;SDS011;54773;53.388;-1.504;2023-03-14T10:09:00;8.23;;;2.10;;
67997;SDS011;54773;53.388;-1.504;2023-03-14T10:11:44;5.75;;;1.70;;
67997;SDS011;54773;53.388;-1.504;2023-03-14T10:14:32;8.18;;;2.13;;
67997;SDS011;54773;53.388;-1.504;2023-03-14T10:17:18;7.85;;;1.92;;
67997;SDS011;54773;53.388;-1.504;2023-03-14T10:20:03;10.73;;;2.08;;
67997;SDS011;54773;53.388;-1.504;2023-03-14T10:22:47;12.00;;;1.63;;
67997;SDS011;54773;53.388;-1.504;2023-03-14T10:25:35;10.05;;;1.50;;
67997;SDS011;54773;53.388;-1.504;2023-03-14T10:28:27;6.95;;;1.58;;
67997;SDS011;54773;53.388;-1.504;2023-03-14T10:31:17;9.73;;;2.15;;
67997;SDS011;54773;53.388;-1.504;2023-03-14T10:34:03;7.80;;;1.20;;
67997;SDS011;54773;53.388;-1.504;2023-03-14T10:36:51;5.38;;;1.23;;
67997;SDS011;54773;53.388;-1.504;2023-03-14T10:39:58;8.60;;;1.42;;
67997;SDS011;54773;53.388;-1.504;2023-03-14T10:42:48;8.35;;;1.17;;
67997;SDS011;54773;53.388;-1.504;2023-03-14T10:45:36;4.32;;;1.75;;
67997;SDS011;54773;53.388;-1.504;2023-03-14T10:48:31;9.15;;;1.70;;
67997;SDS011;54773;53.388;-1.504;2023-03-14T10:54:01;6.13;;;1.60;;
67997;SDS011;54773;53.388;-1.504;2023-03-14T10:56:55;7.63;;;1.25;;
67997;SDS011;54773;53.388;-1.504;2023-03-14T10:59:41;8.23;;;1.67;;
67997;SDS011;54773;53.388;-1.504;2023-03-14T11:05:40;7.15;;;1.50;;
67997;SDS011;54773;53.388;-1.504;2023-03-14T11:08:45;4.65;;;1.10;;
67997;SDS011;54773;53.388;-1.504;2023-03-14T11:11:37;6.35;;;1.65;;
67997;SDS011;54773;53.388;-1.504;2023-03-14T11:17:30;6.15;;;1.30;;
67997;SDS011;54773;53.388;-1.504;2023-03-14T11:23:22;4.97;;;1.10;;
67997;SDS011;54773;53.388;-1.504;2023-03-14T11:26:26;8.88;;;1.67;;
67997;SDS011;54773;53.388;-1.504;2023-03-14T11:29:26;7.53;;;1.52;;
67997;SDS011;54773;53.388;-1.504;2023-03-14T11:32:18;5.80;;;1.20;;
67997;SDS011;54773;53.388;-1.504;2023-03-14T11:35:11;4.80;;;1.38;;
67997;SDS011;54773;53.388;-1.504;2023-03-14T11:38:15;13.45;;;2.55;;
67997;SDS011;54773;53.388;-1.504;2023-03-14T11:47:26;5.20;;;1.15;;
67997;SDS011;54773;53.388;-1.504;2023-03-14T11:50:18;8.95;;;2.25;;
67997;SDS011;54773;53.388;-1.504;2023-03-14T11:53:15;12.43;;;6.10;;
67997;SDS011;54773;53.388;-1.504;2023-03-14T11:56:01;5.15;;;1.13;;
67997;SDS011;54773;53.388;-1.504;2023-03-14T11:58:48;2.78;;;0.80;;
67997;SDS011;54773;53.388;-1.504;2023-03-14T12:01:57;4.90;;;1.25;;
67997;SDS011;54773;53.388;-1.504;2023-03-14T12:14:28;5.60;;;1.42;;
67997;SDS011;54773;53.388;-1.504;2023-03-14T12:20:15;3.28;;;0.80;;
67997;SDS011;54773;53.388;-1.504;2023-03-14T12:23:04;5.78;;;1.08;;
67997;SDS011;54773;53.388;-1.504;2023-03-14T12:25:54;3.65;;;0.95;;
67997;SDS011;54773;53.388;-1.504;2023-03-14T12:31:47;4.10;;;1.20;;
67997;SDS011;54773;53.388;-1.504;2023-03-14T12:34:40;5.53;;;1.17;;
67997;SDS011;54773;53.388;-1.504;2023-03-14T12:37:30;4.85;;;1.20;;
67997;SDS011;54773;53.388;-1.504;2023-03-14T12:40:21;3.70;;;1.00;;
67997;SDS011;54773;53.388;-1.504;2023-03-14T12:43:24;5.65;;;1.30;;
67997;SDS011;54773;53.388;-1.504;2023-03-14T12:46:19;6.05;;;1.20;;
67997;SDS011;54773;53.388;-1.504;2023-03-14T12:49:08;7.32;;;1.00;;
67997;SDS011;54773;53.388;-1.504;2023-03-14T12:51:53;6.53;;;1.30;;
67997;SDS011;54773;53.388;-1.504;2023-03-14T13:01:02;6.43;;;1.20;;
67997;SDS011;54773;53.388;-1.504;2023-03-14T13:03:52;4.45;;;1.27;;
67997;SDS011;54773;53.388;-1.504;2023-03-14T13:06:49;5.82;;;1.40;;
67997;SDS011;54773;53.388;-1.504;2023-03-14T13:13:25;5.70;;;1.38;;
67997;SDS011;54773;53.388;-1.504;2023-03-14T13:16:41;6.88;;;1.40;;
67997;SDS011;54773;53.388;-1.504;2023-03-14T13:19:27;6.03;;;1.35;;
67997;SDS011;54773;53.388;-1.504;2023-03-14T13:22:19;5.70;;;1.13;;
67997;SDS011;54773;53.388;-1.504;2023-03-14T13:25:06;5.35;;;1.58;;
67997;SDS011;54773;53.388;-1.504;2023-03-14T13:27:53;7.55;;;2.15;;
67997;SDS011;54773;53.388;-1.504;2023-03-14T13:30:42;5.03;;;1.52;;
67997;SDS011;54773;53.388;-1.504;2023-03-14T13:33:28;9.18;;;1.70;;
67997;SDS011;54773;53.388;-1.504;2023-03-14T13:36:12;4.72;;;1.50;;
67997;SDS011;54773;53.388;-1.504;2023-03-14T13:38:57;5.40;;;1.70;;
67997;SDS011;54773;53.388;-1.504;2023-03-14T13:41:52;7.32;;;1.30;;
67997;SDS011;54773;53.388;-1.504;2023-03-14T13:44:37;3.45;;;0.98;;
67997;SDS011;54773;53.388;-1.504;2023-03-14T13:47:23;6.88;;;1.25;;
67997;SDS011;54773;53.388;-1.504;2023-03-14T13:50:13;2.75;;;1.00;;
67997;SDS011;54773;53.388;-1.504;2023-03-14T13:52:59;4.35;;;1.42;;
67997;SDS011;54773;53.388;-1.504;2023-03-14T13:55:44;3.63;;;1.42;;
67997;SDS011;54773;53.388;-1.504;2023-03-14T13:58:29;5.78;;;1.33;;
67997;SDS011;54773;53.388;-1.504;2023-03-14T14:01:18;4.05;;;1.05;;
67997;SDS011;54773;53.388;-1.504;2023-03-14T14:04:08;4.10;;;1.23;;
67997;SDS011;54773;53.388;-1.504;2023-03-14T14:06:58;6.45;;;1.60;;
67997;SDS011;54773;53.388;-1.504;2023-03-14T14:09:56;3.42;;;1.10;;
67997;SDS011;54773;53.388;-1.504;2023-03-14T14:15:39;5.85;;;1.13;;
67997;SDS011;54773;53.388;-1.504;2023-03-14T14:18:26;4.82;;;1.00;;
67997;SDS011;54773;53.388;-1.504;2023-03-14T14:21:11;4.18;;;0.90;;
67997;SDS011;54773;53.388;-1.504;2023-03-14T14:23:57;5.28;;;1.38;;
67997;SDS011;54773;53.388;-1.504;2023-03-14T14:27:46;18.25;;;4.90;;
67997;SDS011;54773;53.388;-1.504;2023-03-14T14:30:04;3.85;;;1.10;;
67997;SDS011;54773;53.388;-1.504;2023-03-14T14:32:50;2.35;;;1.00;;
67997;SDS011;54773;53.388;-1.504;2023-03-14T14:35:35;3.58;;;0.82;;
67997;SDS011;54773;53.388;-1.504;2023-03-14T14:38:22;4.82;;;0.95;;
67997;SDS011;54773;53.388;-1.504;2023-03-14T14:41:10;4.35;;;1.40;;
67997;SDS011;54773;53.388;-1.504;2023-03-14T14:43:55;5.80;;;1.25;;
67997;SDS011;54773;53.388;-1.504;2023-03-14T14:46:42;4.28;;;1.20;;
67997;SDS011;54773;53.388;-1.504;2023-03-14T14:49:30;5.03;;;1.50;;
67997;SDS011;54773;53.388;-1.504;2023-03-14T15:00:32;3.47;;;0.98;;
67997;SDS011;54773;53.388;-1.504;2023-03-14T15:14:09;10.13;;;1.50;;
67997;SDS011;54773;53.388;-1.504;2023-03-14T15:17:43;5.32;;;1.50;;
67997;SDS011;54773;53.388;-1.504;2023-03-14T15:20:28;4.55;;;1.15;;
67997;SDS011;54773;53.388;-1.504;2023-03-14T15:23:13;8.25;;;2.05;;
67997;SDS011;54773;53.388;-1.504;2023-03-14T15:25:59;7.10;;;1.52;;
67997;SDS011;54773;53.388;-1.504;2023-03-14T15:28:43;3.28;;;1.10;;
67997;SDS011;54773;53.388;-1.504;2023-03-14T15:31:27;3.53;;;1.00;;
67997;SDS011;54773;53.388;-1.504;2023-03-14T15:34:11;5.32;;;1.17;;
67997;SDS011;54773;53.388;-1.504;2023-03-14T15:37:00;4.07;;;1.20;;
67997;SDS011;54773;53.388;-1.504;2023-03-14T15:39:51;2.92;;;0.93;;
67997;SDS011;54773;53.388;-1.504;2023-03-14T15:42:35;2.33;;;0.73;;
67997;SDS011;54773;53.388;-1.504;2023-03-14T15:45:22;4.68;;;0.70;;
67997;SDS011;54773;53.388;-1.504;2023-03-14T15:48:09;1.90;;;0.70;;
67997;SDS011;54773;53.388;-1.504;2023-03-14T15:51:00;2.95;;;0.73;;
67997;SDS011;54773;53.388;-1.504;2023-03-14T15:53:47;4.20;;;1.15;;
67997;SDS011;54773;53.388;-1.504;2023-03-14T15:56:31;2.22;;;0.80;;
67997;SDS011;54773;53.388;-1.504;2023-03-14T15:59:16;3.70;;;1.08;;
67997;SDS011;54773;53.388;-1.504;2023-03-14T16:02:00;2.08;;;0.82;;
67997;SDS011;54773;53.388;-1.504;2023-03-14T16:04:44;2.00;;;1.00;;
67997;SDS011;54773;53.388;-1.504;2023-03-14T16:07:29;5.43;;;1.38;;
67997;SDS011;54773;53.388;-1.504;2023-03-14T16:10:13;2.77;;;1.03;;
67997;SDS011;54773;53.388;-1.504;2023-03-14T16:13:02;3.83;;;1.10;;
67997;SDS011;54773;53.388;-1.504;2023-03-14T16:16:20;4.60;;;1.17;;
67997;SDS011;54773;53.388;-1.504;2023-03-14T16:18:57;4.53;;;1.80;;
67997;SDS011;54773;53.388;-1.504;2023-03-14T16:21:41;3.25;;;1.20;;
67997;SDS011;54773;53.388;-1.504;2023-03-14T16:24:27;7.68;;;1.55;;
67997;SDS011;54773;53.388;-1.504;2023-03-14T16:27:17;1.98;;;0.90;;
67997;SDS011;54773;53.388;-1.504;2023-03-14T16:30:02;2.85;;;1.17;;
67997;SDS011;54773;53.388;-1.504;2023-03-14T16:32:47;3.40;;;1.27;;
67997;SDS011;54773;53.388;-1.504;2023-03-14T16:35:31;2.58;;;1.10;;
67997;SDS011;54773;53.388;-1.504;2023-03-14T16:38:15;4.00;;;1.60;;
67997;SDS011;54773;53.388;-1.504;2023-03-14T16:41:00;3.70;;;1.40;;
67997;SDS011;54773;53.388;-1.504;2023-03-14T16:43:46;2.65;;;1.10;;
67997;SDS011;54773;53.388;-1.504;2023-03-14T16:46:34;3.20;;;1.15;;
67997;SDS011;54773;53.388;-1.504;2023-03-14T16:49:19;3.28;;;1.23;;
67997;SDS011;54773;53.388;-1.504;2023-03-14T16:52:03;2.95;;;1.20;;
67997;SDS011;54773;53.388;-1.504;2023-03-14T16:54:48;4.45;;;1.20;;
67997;SDS011;54773;53.388;-1.504;2023-03-14T16:57:32;5.40;;;1.30;;
67997;SDS011;54773;53.388;-1.504;2023-03-14T17:00:23;3.88;;;1.60;;
67997;SDS011;54773;53.388;-1.504;2023-03-14T17:03:07;5.60;;;2.17;;
67997;SDS011;54773;53.388;-1.504;2023-03-14T17:05:51;5.13;;;1.77;;
67997;SDS011;54773;53.388;-1.504;2023-03-14T17:08:40;6.50;;;1.90;;
67997;SDS011;54773;53.388;-1.504;2023-03-14T17:11:27;6.35;;;1.45;;
67997;SDS011;54773;53.388;-1.504;2023-03-14T17:14:11;5.68;;;1.73;;
67997;SDS011;54773;53.388;-1.504;2023-03-14T17:16:54;3.28;;;1.35;;
67997;SDS011;54773;53.388;-1.504;2023-03-14T17:19:39;6.07;;;1.65;;
67997;SDS011;54773;53.388;-1.504;2023-03-14T17:22:22;5.33;;;1.80;;
67997;SDS011;54773;53.388;-1.504;2023-03-14T17:25:07;3.75;;;1.38;;
67997;SDS011;54773;53.388;-1.504;2023-03-14T17:27:52;7.15;;;1.70;;
67997;SDS011;54773;53.388;-1.504;2023-03-14T17:30:36;7.15;;;2.38;;
67997;SDS011;54773;53.388;-1.504;2023-03-14T17:33:20;5.35;;;2.50;;
67997;SDS011;54773;53.388;-1.504;2023-03-14T17:36:04;5.72;;;1.60;;
67997;SDS011;54773;53.388;-1.504;2023-03-14T17:38:49;5.47;;;1.75;;
67997;SDS011;54773;53.388;-1.504;2023-03-14T17:41:39;5.30;;;1.92;;